createdAt,value
2017-03-07T00:00:02.208Z,0
2017-03-07T00:01:15.931Z,0
2017-03-07T00:02:29.630Z,0
2017-03-07T00:03:43.394Z,0
2017-03-07T00:04:56.502Z,0
2017-03-07T00:06:10.198Z,0
2017-03-07T00:07:23.950Z,0
2017-03-07T00:08:37.687Z,0
2017-03-07T00:09:51.425Z,0
2017-03-07T00:11:05.176Z,0
2017-03-07T00:12:18.905Z,0
2017-03-07T00:13:32.624Z,0
2017-03-07T00:14:46.337Z,0
2017-03-07T00:16:00.039Z,0
2017-03-07T00:17:13.775Z,0
2017-03-07T00:18:27.503Z,0
2017-03-07T00:19:41.239Z,0
2017-03-07T00:20:54.384Z,0
2017-03-07T00:22:08.125Z,0
2017-03-07T00:23:20.628Z,0
2017-03-07T00:24:34.435Z,0
2017-03-07T00:25:47.627Z,0
2017-03-07T00:27:01.356Z,0
2017-03-07T00:28:15.149Z,0
2017-03-07T00:29:28.844Z,0
2017-03-07T00:30:42.625Z,0
2017-03-07T00:31:56.347Z,0
2017-03-07T00:33:10.064Z,0
2017-03-07T00:34:23.780Z,0
2017-03-07T00:35:37.534Z,0
2017-03-07T00:36:51.286Z,0
2017-03-07T00:38:04.995Z,0
2017-03-07T00:39:18.117Z,0
2017-03-07T00:40:31.251Z,0
2017-03-07T00:41:44.372Z,0
2017-03-07T00:42:58.093Z,0
2017-03-07T00:44:11.237Z,0
2017-03-07T00:45:24.918Z,0
2017-03-07T00:46:38.619Z,0
2017-03-07T00:47:52.373Z,0
2017-03-07T00:49:06.066Z,0
2017-03-07T00:50:19.842Z,0
2017-03-07T00:51:33.573Z,0
2017-03-07T00:52:47.289Z,0
2017-03-07T00:54:01.061Z,0
2017-03-07T00:55:14.799Z,0
2017-03-07T00:56:28.513Z,0
2017-03-07T00:57:42.209Z,0
2017-03-07T00:58:55.925Z,0
2017-03-07T01:00:09.657Z,0
2017-03-07T01:01:23.417Z,0
2017-03-07T01:02:37.178Z,0
2017-03-07T01:03:50.337Z,0
2017-03-07T01:05:02.865Z,0
2017-03-07T01:06:16.589Z,0
2017-03-07T01:07:30.359Z,0
2017-03-07T01:08:43.510Z,0
2017-03-07T01:09:57.230Z,0
2017-03-07T01:11:10.331Z,0
2017-03-07T01:12:24.074Z,0
2017-03-07T01:13:37.240Z,0
2017-03-07T01:14:50.964Z,0
2017-03-07T01:16:04.694Z,0
2017-03-07T01:17:18.407Z,0
2017-03-07T01:18:31.525Z,0
2017-03-07T01:19:45.282Z,0
2017-03-07T01:20:59.085Z,0
2017-03-07T01:22:12.819Z,0
2017-03-07T01:23:26.520Z,0
2017-03-07T01:24:40.215Z,0
2017-03-07T01:25:53.906Z,0
2017-03-07T01:27:07.631Z,0
2017-03-07T01:28:21.351Z,0
2017-03-07T01:29:35.051Z,0
2017-03-07T01:30:48.763Z,0
2017-03-07T01:32:02.506Z,0
2017-03-07T01:33:16.491Z,0
2017-03-07T01:34:30.280Z,0
2017-03-07T01:35:44.060Z,0
2017-03-07T01:36:57.261Z,0
2017-03-07T01:38:11.061Z,0
2017-03-07T01:39:24.814Z,0
2017-03-07T01:40:38.546Z,0
2017-03-07T01:41:51.729Z,0
2017-03-07T01:43:05.582Z,0
2017-03-07T01:44:19.437Z,0
2017-03-07T01:45:33.153Z,0
2017-03-07T01:46:46.882Z,0
2017-03-07T01:48:00.676Z,0
2017-03-07T01:49:14.460Z,0
2017-03-07T01:50:28.172Z,0
2017-03-07T01:51:41.954Z,0
2017-03-07T01:52:55.730Z,0
2017-03-07T01:54:09.537Z,0
2017-03-07T01:55:23.334Z,0
2017-03-07T01:56:36.554Z,0
2017-03-07T01:57:49.706Z,0
2017-03-07T01:59:03.511Z,0
2017-03-07T02:00:17.256Z,0
2017-03-07T02:01:31.139Z,0
2017-03-07T02:02:44.896Z,0
2017-03-07T02:03:58.648Z,0
2017-03-07T02:05:11.826Z,0
2017-03-07T02:06:25.597Z,0
2017-03-07T02:07:38.783Z,0
2017-03-07T02:08:52.535Z,0
2017-03-07T02:10:05.746Z,0
2017-03-07T02:11:18.338Z,0
2017-03-07T02:12:32.145Z,0
2017-03-07T02:13:45.899Z,0
2017-03-07T02:14:59.693Z,0
2017-03-07T02:16:13.428Z,0
2017-03-07T02:17:26.635Z,0
2017-03-07T02:18:40.420Z,0
2017-03-07T02:19:54.289Z,0
2017-03-07T02:21:06.238Z,0
2017-03-07T02:22:20.030Z,0
2017-03-07T02:23:33.783Z,0
2017-03-07T02:24:47.568Z,0
2017-03-07T02:26:01.294Z,0
2017-03-07T02:27:15.046Z,0
2017-03-07T02:28:28.800Z,0
2017-03-07T02:29:42.531Z,0
2017-03-07T02:30:56.247Z,0
2017-03-07T02:32:09.969Z,0
2017-03-07T02:33:23.736Z,0
2017-03-07T02:34:37.449Z,0
2017-03-07T02:35:51.186Z,0
2017-03-07T02:37:04.270Z,0
2017-03-07T02:38:17.987Z,0
2017-03-07T02:39:31.712Z,0
2017-03-07T02:40:45.469Z,0
2017-03-07T02:41:59.236Z,0
2017-03-07T02:43:12.950Z,0
2017-03-07T02:44:26.048Z,0
2017-03-07T02:45:39.136Z,0
2017-03-07T02:46:52.845Z,0
2017-03-07T02:48:06.612Z,0
2017-03-07T02:49:20.391Z,0
2017-03-07T02:50:34.137Z,0
2017-03-07T02:51:47.878Z,0
2017-03-07T02:53:01.587Z,0
2017-03-07T02:54:15.495Z,0
2017-03-07T02:55:29.244Z,0
2017-03-07T02:56:41.813Z,0
2017-03-07T02:57:55.555Z,0
2017-03-07T02:59:09.260Z,0
2017-03-07T03:00:23.166Z,0
2017-03-07T03:01:36.359Z,0
2017-03-07T03:02:49.447Z,0
2017-03-07T03:04:03.163Z,0
2017-03-07T03:05:17.023Z,0
2017-03-07T03:06:30.927Z,0
2017-03-07T03:07:44.638Z,0
2017-03-07T03:08:58.359Z,0
2017-03-07T03:10:12.219Z,0
2017-03-07T03:11:26.065Z,0
2017-03-07T03:12:39.906Z,0
2017-03-07T03:13:53.628Z,0
2017-03-07T03:15:07.309Z,0
2017-03-07T03:16:20.618Z,0
2017-03-07T03:17:33.863Z,0
2017-03-07T03:18:47.577Z,0
2017-03-07T03:20:01.327Z,0
2017-03-07T03:21:15.115Z,0
2017-03-07T03:22:29.003Z,0
2017-03-07T03:23:42.733Z,0
2017-03-07T03:24:56.511Z,0
2017-03-07T03:26:09.738Z,0
2017-03-07T03:27:23.558Z,0
2017-03-07T03:28:37.295Z,0
2017-03-07T03:29:51.015Z,0
2017-03-07T03:31:04.737Z,0
2017-03-07T03:32:18.877Z,0
2017-03-07T03:33:32.811Z,0
2017-03-07T03:34:46.589Z,0
2017-03-07T03:36:00.301Z,0
2017-03-07T03:37:14.117Z,0
2017-03-07T03:38:27.943Z,0
2017-03-07T03:39:41.655Z,0
2017-03-07T03:40:55.344Z,0
2017-03-07T03:42:08.491Z,0
2017-03-07T03:43:22.288Z,0
2017-03-07T03:44:36.026Z,0
2017-03-07T03:45:49.215Z,0
2017-03-07T03:47:02.934Z,0
2017-03-07T03:48:16.860Z,0
2017-03-07T03:49:30.075Z,0
2017-03-07T03:50:43.794Z,0
2017-03-07T03:51:57.507Z,0
2017-03-07T03:53:11.221Z,0
2017-03-07T03:54:25.146Z,0
2017-03-07T03:55:38.934Z,0
2017-03-07T03:56:52.617Z,0
2017-03-07T03:58:06.394Z,0
2017-03-07T03:59:19.590Z,0
2017-03-07T04:00:33.471Z,0
2017-03-07T04:01:47.196Z,0
2017-03-07T04:03:00.943Z,0
2017-03-07T04:04:14.100Z,0
2017-03-07T04:05:27.839Z,0
2017-03-07T04:06:41.562Z,0
2017-03-07T04:07:55.334Z,0
2017-03-07T04:09:09.055Z,0
2017-03-07T04:10:22.984Z,0
2017-03-07T04:11:36.783Z,0
2017-03-07T04:12:50.514Z,0
2017-03-07T04:14:04.259Z,0
2017-03-07T04:15:18.018Z,0
2017-03-07T04:16:31.277Z,0
2017-03-07T04:17:44.983Z,0
2017-03-07T04:18:58.734Z,0
2017-03-07T04:20:12.125Z,0
2017-03-07T04:21:25.941Z,0
2017-03-07T04:22:39.723Z,0
2017-03-07T04:23:53.465Z,0
2017-03-07T04:25:07.218Z,0
2017-03-07T04:26:21.383Z,0
2017-03-07T04:27:35.302Z,0
2017-03-07T04:28:49.023Z,0
2017-03-07T04:30:02.146Z,0
2017-03-07T04:31:15.856Z,0
2017-03-07T04:32:29.599Z,0
2017-03-07T04:33:43.327Z,0
2017-03-07T04:34:57.042Z,0
2017-03-07T04:36:10.793Z,0
2017-03-07T04:37:24.512Z,0
2017-03-07T04:38:38.217Z,0
2017-03-07T04:39:51.942Z,0
2017-03-07T04:41:05.688Z,0
2017-03-07T04:42:19.419Z,0
2017-03-07T04:43:33.139Z,0
2017-03-07T04:44:46.240Z,0
2017-03-07T04:45:59.983Z,0
2017-03-07T04:47:13.716Z,0
2017-03-07T04:48:27.472Z,0
2017-03-07T04:49:41.184Z,0
2017-03-07T04:50:54.896Z,0
2017-03-07T04:52:08.061Z,0
2017-03-07T04:53:21.793Z,0
2017-03-07T04:54:35.497Z,0
2017-03-07T04:55:49.224Z,0
2017-03-07T04:57:02.966Z,0
2017-03-07T04:58:16.691Z,0
2017-03-07T04:59:29.851Z,0
2017-03-07T05:00:43.552Z,0
2017-03-07T05:01:57.299Z,0
2017-03-07T05:03:11.091Z,0
2017-03-07T05:04:24.823Z,0
2017-03-07T05:05:38.528Z,0
2017-03-07T05:06:52.245Z,0
2017-03-07T05:08:06.030Z,0
2017-03-07T05:09:19.724Z,0
2017-03-07T05:10:33.435Z,0
2017-03-07T05:11:47.167Z,0
2017-03-07T05:13:00.867Z,0
2017-03-07T05:14:14.623Z,0
2017-03-07T05:15:28.335Z,0
2017-03-07T05:16:42.095Z,0
2017-03-07T05:17:55.811Z,0
2017-03-07T05:19:09.530Z,0
2017-03-07T05:20:23.274Z,0
2017-03-07T05:21:36.985Z,0
2017-03-07T05:22:50.679Z,0
2017-03-07T05:24:03.809Z,0
2017-03-07T05:25:17.489Z,0
2017-03-07T05:26:30.610Z,0
2017-03-07T05:27:44.345Z,0
2017-03-07T05:28:58.081Z,0
2017-03-07T05:30:11.796Z,0
2017-03-07T05:31:25.507Z,0
2017-03-07T05:32:39.208Z,0
2017-03-07T05:33:52.319Z,0
2017-03-07T05:35:05.486Z,0
2017-03-07T05:36:19.200Z,0
2017-03-07T05:37:32.274Z,0
2017-03-07T05:38:45.944Z,0
2017-03-07T05:39:59.681Z,0
2017-03-07T05:41:12.820Z,0
2017-03-07T05:42:26.560Z,0
2017-03-07T05:43:40.286Z,0
2017-03-07T05:44:54.044Z,0
2017-03-07T05:46:07.770Z,0
2017-03-07T05:47:21.561Z,0
2017-03-07T05:48:35.277Z,0
2017-03-07T05:49:49.056Z,0
2017-03-07T05:51:02.794Z,0
2017-03-07T05:52:15.889Z,0
2017-03-07T05:53:29.020Z,0
2017-03-07T05:54:42.747Z,0
2017-03-07T05:55:55.907Z,0
2017-03-07T05:57:09.626Z,0
2017-03-07T05:58:23.364Z,0
2017-03-07T05:59:37.042Z,0
2017-03-07T06:00:50.734Z,0
2017-03-07T06:02:04.495Z,0
2017-03-07T06:03:18.242Z,0
2017-03-07T06:04:31.369Z,0
2017-03-07T06:05:44.570Z,0
2017-03-07T06:06:58.305Z,0
2017-03-07T06:08:12.004Z,0
2017-03-07T06:09:25.711Z,0
2017-03-07T06:10:39.408Z,0
2017-03-07T06:11:53.112Z,0
2017-03-07T06:13:06.832Z,0
2017-03-07T06:14:20.627Z,0
2017-03-07T06:15:34.366Z,0
2017-03-07T06:16:48.098Z,0
2017-03-07T06:18:01.808Z,0
2017-03-07T06:19:15.579Z,0
2017-03-07T06:20:29.294Z,0
2017-03-07T06:21:43.029Z,0
2017-03-07T06:22:56.746Z,0
2017-03-07T06:24:10.465Z,0
2017-03-07T06:25:23.585Z,0
2017-03-07T06:26:37.327Z,0
2017-03-07T06:27:51.032Z,0
2017-03-07T06:29:04.788Z,0
2017-03-07T06:30:17.935Z,0
2017-03-07T06:31:31.047Z,0
2017-03-07T06:32:43.602Z,0
2017-03-07T06:33:57.339Z,0
2017-03-07T06:35:11.074Z,0
2017-03-07T06:36:24.846Z,0
2017-03-07T06:37:37.978Z,0
2017-03-07T06:38:51.719Z,0
2017-03-07T06:40:05.433Z,0
2017-03-07T06:41:18.579Z,0
2017-03-07T06:42:31.694Z,0
2017-03-07T06:43:44.773Z,0
2017-03-07T06:44:58.499Z,0
2017-03-07T06:46:12.184Z,0
2017-03-07T06:47:25.918Z,0
2017-03-07T06:48:39.623Z,0
2017-03-07T06:49:53.343Z,0
2017-03-07T06:51:07.038Z,0
2017-03-07T06:52:20.792Z,0
2017-03-07T06:53:34.525Z,0
2017-03-07T06:54:47.636Z,0
2017-03-07T06:56:01.344Z,0
2017-03-07T06:57:15.080Z,0
2017-03-07T06:58:28.808Z,0
2017-03-07T06:59:42.558Z,0
2017-03-07T07:00:56.259Z,0
2017-03-07T07:02:09.374Z,0
2017-03-07T07:03:23.056Z,0
2017-03-07T07:04:36.149Z,0
2017-03-07T07:05:49.861Z,0
2017-03-07T07:07:03.575Z,0
2017-03-07T07:08:16.093Z,0
2017-03-07T07:09:29.883Z,0
2017-03-07T07:10:43.708Z,0
2017-03-07T07:11:56.902Z,0
2017-03-07T07:13:10.579Z,0
2017-03-07T07:14:23.086Z,0
2017-03-07T07:15:35.599Z,0
2017-03-07T07:16:49.296Z,0
2017-03-07T07:18:02.998Z,0
2017-03-07T07:19:16.730Z,0
2017-03-07T07:20:29.860Z,0
2017-03-07T07:21:43.572Z,0
2017-03-07T07:22:57.290Z,0
2017-03-07T07:24:11.224Z,0
2017-03-07T07:25:24.967Z,0
2017-03-07T07:26:38.114Z,0
2017-03-07T07:27:51.813Z,0
2017-03-07T07:29:05.517Z,0
2017-03-07T07:30:19.269Z,0
2017-03-07T07:31:33.011Z,0
2017-03-07T07:32:46.157Z,0
2017-03-07T07:33:59.859Z,0
2017-03-07T07:35:12.385Z,0
2017-03-07T07:36:26.125Z,0
2017-03-07T07:37:39.252Z,0
2017-03-07T07:38:51.771Z,0
2017-03-07T07:40:05.500Z,0
2017-03-07T07:41:19.232Z,0
2017-03-07T07:42:32.943Z,0
2017-03-07T07:43:46.110Z,0
2017-03-07T07:44:59.834Z,0
2017-03-07T07:46:13.551Z,0
2017-03-07T07:47:27.269Z,0
2017-03-07T07:48:40.998Z,0
2017-03-07T07:49:54.717Z,0
2017-03-07T07:51:08.490Z,0
2017-03-07T07:52:22.219Z,0
2017-03-07T07:53:35.944Z,0
2017-03-07T07:54:49.730Z,0
2017-03-07T07:56:03.494Z,0
2017-03-07T07:57:16.619Z,0
2017-03-07T07:58:30.383Z,0
2017-03-07T07:59:44.113Z,0
2017-03-07T08:00:57.845Z,0
2017-03-07T08:02:11.559Z,0
2017-03-07T08:03:24.084Z,0
2017-03-07T08:04:37.216Z,0
2017-03-07T08:05:50.350Z,0
2017-03-07T08:07:03.470Z,0
2017-03-07T08:08:17.165Z,0
2017-03-07T08:09:30.268Z,0
2017-03-07T08:10:44.016Z,0
2017-03-07T08:11:57.754Z,0
2017-03-07T08:13:11.484Z,0
2017-03-07T08:14:25.212Z,0
2017-03-07T08:15:38.391Z,0
2017-03-07T08:16:52.090Z,0
2017-03-07T08:18:05.788Z,0
2017-03-07T08:19:18.940Z,0
2017-03-07T08:20:32.646Z,0
2017-03-07T08:21:46.353Z,0
2017-03-07T08:23:00.116Z,0
2017-03-07T08:24:13.840Z,0
2017-03-07T08:25:27.540Z,0
2017-03-07T08:26:40.661Z,0
2017-03-07T08:27:53.770Z,0
2017-03-07T08:29:07.486Z,0
2017-03-07T08:30:21.170Z,0
2017-03-07T08:31:33.740Z,0
2017-03-07T08:32:46.870Z,0
2017-03-07T08:34:00.595Z,0
2017-03-07T08:35:14.397Z,0
2017-03-07T08:36:27.505Z,0
2017-03-07T08:37:41.204Z,0
2017-03-07T08:38:54.313Z,0
2017-03-07T08:40:08.030Z,0
2017-03-07T08:41:21.202Z,0
2017-03-07T08:42:34.947Z,4
2017-03-07T08:43:48.653Z,4
2017-03-07T08:45:02.348Z,4
2017-03-07T08:46:16.039Z,4
2017-03-07T08:47:29.739Z,4
2017-03-07T08:48:43.430Z,8
2017-03-07T08:49:57.145Z,8
2017-03-07T08:51:10.271Z,12
2017-03-07T08:52:23.386Z,20
2017-03-07T08:53:37.156Z,28
2017-03-07T08:54:50.885Z,40
2017-03-07T08:56:04.572Z,52
2017-03-07T08:57:17.685Z,64
2017-03-07T08:58:30.800Z,88
2017-03-07T08:59:43.915Z,120
2017-03-07T09:00:57.637Z,164
2017-03-07T09:02:11.317Z,212
2017-03-07T09:03:24.445Z,252
2017-03-07T09:04:37.524Z,296
2017-03-07T09:05:50.673Z,352
2017-03-07T09:07:04.481Z,412
2017-03-07T09:08:18.192Z,504
2017-03-07T09:09:31.903Z,584
2017-03-07T09:10:45.665Z,660
2017-03-07T09:11:59.420Z,784
2017-03-07T09:13:13.161Z,904
2017-03-07T09:14:26.263Z,988
2017-03-07T09:15:39.383Z,1268
2017-03-07T09:16:53.122Z,1708
2017-03-07T09:18:06.841Z,1960
2017-03-07T09:19:20.569Z,2236
2017-03-07T09:20:34.328Z,2536
2017-03-07T09:21:48.047Z,2912
2017-03-07T09:23:01.766Z,3344
2017-03-07T09:24:14.930Z,3104
2017-03-07T09:25:28.652Z,3476
2017-03-07T09:26:41.748Z,3500
2017-03-07T09:27:55.443Z,3492
2017-03-07T09:29:07.982Z,3236
2017-03-07T09:30:21.772Z,3828
2017-03-07T09:31:35.532Z,4004
2017-03-07T09:32:49.252Z,3652
2017-03-07T09:34:02.998Z,3572
2017-03-07T09:35:16.677Z,4140
2017-03-07T09:36:30.407Z,4888
2017-03-07T09:37:44.143Z,3976
2017-03-07T09:38:57.887Z,4120
2017-03-07T09:40:11.662Z,4284
2017-03-07T09:41:25.374Z,4448
2017-03-07T09:42:39.099Z,4628
2017-03-07T09:43:52.819Z,4812
2017-03-07T09:45:06.516Z,4992
2017-03-07T09:46:20.226Z,5192
2017-03-07T09:47:33.943Z,5384
2017-03-07T09:48:47.677Z,5584
2017-03-07T09:50:01.409Z,5808
2017-03-07T09:51:15.129Z,6036
2017-03-07T09:52:28.832Z,6264
2017-03-07T09:53:42.557Z,6512
2017-03-07T09:54:55.695Z,6772
2017-03-07T09:56:09.389Z,7028
2017-03-07T09:57:23.124Z,7292
2017-03-07T09:58:36.853Z,7544
2017-03-07T09:59:50.614Z,7788
2017-03-07T10:01:04.352Z,8036
2017-03-07T10:02:17.479Z,8308
2017-03-07T10:03:31.199Z,8612
2017-03-07T10:04:44.944Z,8972
2017-03-07T10:05:58.662Z,9316
2017-03-07T10:07:12.431Z,9736
2017-03-07T10:08:25.507Z,10236
2017-03-07T10:09:39.309Z,10900
2017-03-07T10:10:53.044Z,11732
2017-03-07T10:12:06.148Z,12388
2017-03-07T10:13:19.908Z,17120
2017-03-07T10:18:22.691Z,13172
2017-03-07T10:19:36.392Z,13124
2017-03-07T10:20:50.100Z,13112
2017-03-07T10:22:03.833Z,13076
2017-03-07T10:23:17.553Z,13084
2017-03-07T10:24:31.266Z,13088
2017-03-07T10:25:43.777Z,13156
2017-03-07T10:26:56.891Z,13252
2017-03-07T10:28:10.583Z,13176
2017-03-07T10:29:24.302Z,12836
2017-03-07T10:30:37.430Z,12508
2017-03-07T10:31:50.560Z,12584
2017-03-07T10:33:04.252Z,12440
2017-03-07T10:34:17.979Z,12160
2017-03-07T10:35:31.771Z,11896
2017-03-07T10:36:44.864Z,11532
2017-03-07T10:37:58.572Z,11160
2017-03-07T10:39:12.268Z,10920
2017-03-07T10:40:26.014Z,10780
2017-03-07T10:41:39.774Z,10580
2017-03-07T10:42:53.510Z,10424
2017-03-07T10:44:06.624Z,10308
2017-03-07T10:45:19.793Z,10180
2017-03-07T10:46:33.603Z,10168
2017-03-07T10:47:47.315Z,10320
2017-03-07T10:49:00.393Z,10816
2017-03-07T10:50:14.099Z,15212
2017-03-07T10:51:27.245Z,17124
2017-03-07T10:52:40.949Z,20960
2017-03-07T10:53:54.051Z,23552
2017-03-07T10:55:07.789Z,53696
2017-03-07T10:56:21.505Z,59296
2017-03-07T10:57:35.273Z,58720
2017-03-07T10:58:47.761Z,60544
2017-03-07T11:00:00.886Z,61920
2017-03-07T11:01:14.019Z,61504
2017-03-07T11:02:27.745Z,61984
2017-03-07T11:03:40.869Z,63264
2017-03-07T11:04:53.424Z,59168
2017-03-07T11:06:07.141Z,55936
2017-03-07T11:07:20.858Z,58656
2017-03-07T11:08:34.576Z,63488
2017-03-07T11:09:47.112Z,65888
2017-03-07T11:11:00.843Z,65248
2017-03-07T11:12:14.584Z,63968
2017-03-07T11:13:28.270Z,66784
2017-03-07T11:14:42.003Z,68000
2017-03-07T11:15:55.696Z,71072
2017-03-07T11:17:08.833Z,71456
2017-03-07T11:18:22.556Z,67744
2017-03-07T11:19:36.279Z,58560
2017-03-07T11:20:50.003Z,58912
2017-03-07T11:22:03.729Z,34656
2017-03-07T11:23:17.488Z,49280
2017-03-07T11:24:31.217Z,67616
2017-03-07T11:25:44.376Z,61344
2017-03-07T11:26:57.489Z,68384
2017-03-07T11:28:11.202Z,35328
2017-03-07T11:29:25.169Z,63776
2017-03-07T11:30:38.850Z,82880
2017-03-07T11:31:52.592Z,86688
2017-03-07T11:33:06.293Z,67008
2017-03-07T11:34:19.995Z,36864
2017-03-07T11:35:33.768Z,41792
2017-03-07T11:36:46.886Z,36640
2017-03-07T11:38:00.620Z,29856
2017-03-07T11:39:14.346Z,26048
2017-03-07T11:40:28.141Z,28480
2017-03-07T11:41:41.265Z,33600
2017-03-07T11:42:54.947Z,52448
2017-03-07T11:44:08.699Z,43424
2017-03-07T11:45:22.480Z,39968
2017-03-07T11:46:35.663Z,36416
2017-03-07T11:47:48.794Z,38432
2017-03-07T11:49:02.545Z,37600
2017-03-07T11:50:16.269Z,32320
2017-03-07T11:51:29.388Z,30848
2017-03-07T11:52:43.163Z,32960
2017-03-07T11:53:56.286Z,37728
2017-03-07T11:55:10.009Z,30720
2017-03-07T11:56:23.203Z,35616
2017-03-07T11:57:36.935Z,49856
2017-03-07T11:58:50.099Z,57824
2017-03-07T12:00:03.818Z,63776
2017-03-07T12:01:17.587Z,69600
2017-03-07T12:02:30.147Z,71936
2017-03-07T12:03:43.868Z,67168
2017-03-07T12:04:57.679Z,77568
2017-03-07T12:06:11.495Z,74784
2017-03-07T12:07:25.214Z,71296
2017-03-07T12:08:38.913Z,67840
2017-03-07T12:09:52.687Z,70528
2017-03-07T12:11:05.847Z,92896
2017-03-07T12:12:19.609Z,93952
2017-03-07T12:13:33.393Z,91392
2017-03-07T12:14:47.149Z,89664
2017-03-07T12:16:00.891Z,93216
2017-03-07T12:17:14.040Z,93792
2017-03-07T12:18:27.780Z,109696
2017-03-07T12:19:40.955Z,103392
2017-03-07T12:20:54.704Z,98688
2017-03-07T12:22:07.798Z,103872
2017-03-07T12:23:21.558Z,110496
2017-03-07T12:24:35.299Z,97440
2017-03-07T12:25:49.052Z,97504
2017-03-07T12:27:02.845Z,93504
2017-03-07T12:28:16.583Z,100672
2017-03-07T12:29:30.292Z,98944
2017-03-07T12:30:43.453Z,98144
2017-03-07T12:31:55.976Z,94656
2017-03-07T12:33:09.748Z,93856
2017-03-07T12:34:22.936Z,95776
2017-03-07T12:35:36.718Z,90464
2017-03-07T12:36:50.453Z,86752
2017-03-07T12:38:04.178Z,92992
2017-03-07T12:39:17.340Z,101312
2017-03-07T12:40:31.064Z,96032
2017-03-07T12:41:44.801Z,99904
2017-03-07T12:42:58.501Z,98176
2017-03-07T12:44:12.218Z,87328
2017-03-07T12:45:25.949Z,85920
2017-03-07T12:46:39.126Z,83296
2017-03-07T12:47:52.277Z,98144
2017-03-07T12:49:06.016Z,96096
2017-03-07T12:50:19.807Z,98432
2017-03-07T12:51:33.593Z,97536
2017-03-07T12:52:47.359Z,96800
2017-03-07T12:54:01.119Z,93984
2017-03-07T12:55:14.250Z,84512
2017-03-07T12:56:27.947Z,89408
2017-03-07T12:57:41.677Z,103488
2017-03-07T12:58:55.364Z,97696
2017-03-07T13:00:09.095Z,99296
2017-03-07T13:01:22.846Z,101824
2017-03-07T13:02:36.679Z,98080
2017-03-07T13:03:50.396Z,101280
2017-03-07T13:05:04.143Z,100896
2017-03-07T13:06:17.316Z,100320
2017-03-07T13:07:30.523Z,104416
2017-03-07T13:08:44.252Z,101856
2017-03-07T13:09:58.492Z,106016
2017-03-07T13:11:12.492Z,107808
2017-03-07T13:12:26.366Z,111936
2017-03-07T13:13:40.151Z,107904
2017-03-07T13:14:53.447Z,110240
2017-03-07T13:16:07.355Z,102528
2017-03-07T13:17:20.553Z,106656
2017-03-07T13:18:34.382Z,105664
2017-03-07T13:19:48.152Z,105696
2017-03-07T13:21:01.895Z,105600
2017-03-07T13:22:15.011Z,108832
2017-03-07T13:23:28.743Z,105472
2017-03-07T13:24:42.497Z,104096
2017-03-07T13:25:56.289Z,98976
2017-03-07T13:27:10.041Z,91168
2017-03-07T13:28:23.748Z,102496
2017-03-07T13:29:37.492Z,102720
2017-03-07T13:30:50.659Z,103456
2017-03-07T13:32:03.816Z,110496
2017-03-07T13:33:16.965Z,110464
2017-03-07T13:34:30.114Z,105504
2017-03-07T13:35:43.214Z,101056
2017-03-07T13:36:56.965Z,101024
2017-03-07T13:38:10.717Z,102592
2017-03-07T13:39:24.481Z,101824
2017-03-07T13:40:38.195Z,103104
2017-03-07T13:41:51.338Z,100896
2017-03-07T13:43:05.087Z,105664
2017-03-07T13:44:18.825Z,108256
2017-03-07T13:45:31.381Z,111520
2017-03-07T13:46:45.185Z,103616
2017-03-07T13:47:58.978Z,103840
2017-03-07T13:49:12.119Z,109024
2017-03-07T13:50:25.931Z,100480
2017-03-07T13:51:39.077Z,102272
2017-03-07T13:52:52.205Z,106560
2017-03-07T13:54:05.340Z,109440
2017-03-07T13:55:17.866Z,111296
2017-03-07T13:56:31.621Z,115072
2017-03-07T13:57:45.376Z,112096
2017-03-07T13:58:59.183Z,113600
2017-03-07T14:00:12.347Z,116288
2017-03-07T14:01:25.526Z,114240
2017-03-07T14:02:38.670Z,113184
2017-03-07T14:03:51.190Z,112736
2017-03-07T14:05:04.919Z,115616
2017-03-07T14:06:18.645Z,117248
2017-03-07T14:07:31.847Z,106432
2017-03-07T14:08:44.989Z,100320
2017-03-07T14:09:58.692Z,100544
2017-03-07T14:11:12.441Z,93408
2017-03-07T14:12:25.576Z,95648
2017-03-07T14:13:39.330Z,112832
2017-03-07T14:14:52.482Z,118208
2017-03-07T14:16:05.636Z,112320
2017-03-07T14:17:18.752Z,115296
2017-03-07T14:18:32.470Z,118912
2017-03-07T14:19:46.273Z,112416
2017-03-07T14:21:00.035Z,112768
2017-03-07T14:22:13.767Z,118080
2017-03-07T14:23:27.475Z,98816
2017-03-07T14:24:41.179Z,99712
2017-03-07T14:25:54.920Z,109696
2017-03-07T14:27:08.666Z,111136
2017-03-07T14:28:22.446Z,107360
2017-03-07T14:29:36.193Z,119808
2017-03-07T14:30:48.726Z,116128
2017-03-07T14:32:02.495Z,121376
2017-03-07T14:33:15.647Z,120704
2017-03-07T14:34:28.813Z,134272
2017-03-07T14:35:41.992Z,79584
2017-03-07T14:36:55.733Z,133632
2017-03-07T14:38:08.890Z,54336
2017-03-07T14:39:22.649Z,137024
2017-03-07T14:40:36.419Z,133280
2017-03-07T14:41:50.237Z,134240
2017-03-07T14:43:04.012Z,137056
2017-03-07T14:44:17.753Z,138016
2017-03-07T14:45:30.894Z,59488
2017-03-07T14:46:44.619Z,130560
2017-03-07T14:47:58.373Z,121056
2017-03-07T14:49:12.099Z,104448
2017-03-07T14:50:25.836Z,133472
2017-03-07T14:51:39.572Z,49920
2017-03-07T14:52:52.726Z,47712
2017-03-07T14:54:05.918Z,48352
2017-03-07T14:55:19.144Z,96448
2017-03-07T14:56:32.894Z,135392
2017-03-07T14:57:45.477Z,118432
2017-03-07T14:58:58.607Z,105888
2017-03-07T15:00:11.237Z,98336
2017-03-07T15:01:24.987Z,96672
2017-03-07T15:02:38.741Z,111840
2017-03-07T15:03:51.917Z,89600
2017-03-07T15:05:05.686Z,120704
2017-03-07T15:06:20.407Z,121344
2017-03-07T15:07:34.167Z,125344
2017-03-07T15:08:47.922Z,130048
2017-03-07T15:10:01.720Z,128320
2017-03-07T15:11:15.500Z,121664
2017-03-07T15:12:28.080Z,123616
2017-03-07T15:13:41.841Z,129440
2017-03-07T15:14:55.591Z,134560
2017-03-07T15:16:09.316Z,131808
2017-03-07T15:17:22.486Z,128288
2017-03-07T15:18:36.238Z,135872
2017-03-07T15:19:49.376Z,128096
2017-03-07T15:21:02.519Z,130784
2017-03-07T15:22:16.263Z,131072
2017-03-07T15:23:29.401Z,128800
2017-03-07T15:24:43.216Z,131520
2017-03-07T15:25:56.991Z,130336
2017-03-07T15:27:10.710Z,123744
2017-03-07T15:28:23.853Z,128224
2017-03-07T15:29:37.004Z,117024
2017-03-07T15:30:50.734Z,73984
2017-03-07T15:32:03.886Z,141920
2017-03-07T15:33:17.011Z,137664
2017-03-07T15:34:30.167Z,61856
2017-03-07T15:35:42.728Z,39296
2017-03-07T15:36:55.888Z,35040
2017-03-07T15:38:09.608Z,44224
2017-03-07T15:39:22.751Z,141440
2017-03-07T15:40:35.294Z,145728
2017-03-07T15:41:48.420Z,69696
2017-03-07T15:43:02.171Z,75456
2017-03-07T15:44:15.901Z,57440
2017-03-07T15:45:29.620Z,136256
2017-03-07T15:46:42.774Z,131456
2017-03-07T15:47:56.517Z,58784
2017-03-07T15:49:10.287Z,53440
2017-03-07T15:50:22.840Z,53952
2017-03-07T15:51:35.391Z,54368
2017-03-07T15:52:48.534Z,54880
2017-03-07T15:54:01.662Z,102432
2017-03-07T15:55:15.402Z,55328
2017-03-07T15:56:29.165Z,51008
2017-03-07T15:57:42.301Z,46112
2017-03-07T15:58:55.450Z,43840
2017-03-07T16:00:09.216Z,45856
2017-03-07T16:01:22.426Z,40448
2017-03-07T16:02:36.230Z,34848
2017-03-07T16:03:49.970Z,30592
2017-03-07T16:05:03.740Z,28608
2017-03-07T16:06:16.947Z,25792
2017-03-07T16:07:30.072Z,25312
2017-03-07T16:08:43.850Z,25440
2017-03-07T16:09:57.621Z,27040
2017-03-07T16:11:11.370Z,29728
2017-03-07T16:12:25.101Z,32864
2017-03-07T16:13:37.646Z,36992
2017-03-07T16:14:50.792Z,43008
2017-03-07T16:16:04.585Z,72544
2017-03-07T16:17:17.758Z,126656
2017-03-07T16:18:31.480Z,52320
2017-03-07T16:19:45.214Z,48640
2017-03-07T16:20:58.970Z,43424
2017-03-07T16:22:18.551Z,107648
2017-03-07T16:23:31.711Z,85120
2017-03-07T16:24:45.453Z,112896
2017-03-07T16:25:58.604Z,116832
2017-03-07T16:27:12.312Z,114496
2017-03-07T16:28:26.109Z,114112
2017-03-07T16:29:39.879Z,123488
2017-03-07T16:30:53.634Z,127424
2017-03-07T16:32:07.361Z,56032
2017-03-07T16:33:20.563Z,44480
2017-03-07T16:34:33.867Z,38560
2017-03-07T16:35:47.013Z,35072
2017-03-07T16:36:59.554Z,34688
2017-03-07T16:38:12.684Z,36992
2017-03-07T16:39:26.440Z,36544
2017-03-07T16:40:40.207Z,37984
2017-03-07T16:41:53.987Z,40992
2017-03-07T16:43:07.113Z,45856
2017-03-07T16:44:20.848Z,57600
2017-03-07T16:45:33.972Z,51520
2017-03-07T16:46:47.736Z,53984
2017-03-07T16:48:01.505Z,78016
2017-03-07T16:49:14.701Z,44224
2017-03-07T16:50:28.454Z,68640
2017-03-07T16:51:42.181Z,32416
2017-03-07T16:52:55.897Z,31712
2017-03-07T16:54:09.641Z,35200
2017-03-07T16:55:22.736Z,40384
2017-03-07T16:56:36.464Z,51360
2017-03-07T16:57:50.230Z,64928